createdAt,value
2018-08-24T00:01:35.692Z,85.50
2018-08-24T00:04:09.304Z,85.60
2018-08-24T00:06:40.380Z,85.50
2018-08-24T00:09:15.180Z,85.40
2018-08-24T00:11:43.652Z,85.90
2018-08-24T00:14:13.201Z,85.00
2018-08-24T00:16:42.481Z,84.70
2018-08-24T00:19:13.190Z,85.20
2018-08-24T00:21:41.788Z,85.30
2018-08-24T00:24:11.504Z,85.30
2018-08-24T00:26:40.530Z,86.60
2018-08-24T00:29:09.277Z,86.80
2018-08-24T00:31:38.667Z,87.10
2018-08-24T00:34:07.409Z,87.40
2018-08-24T00:36:35.857Z,87.70
2018-08-24T00:39:05.969Z,87.60
2018-08-24T00:41:34.423Z,87.30
2018-08-24T00:44:02.840Z,87.40
2018-08-24T00:46:31.264Z,87.70
2018-08-24T00:48:59.784Z,87.70
2018-08-24T00:51:28.312Z,87.60
2018-08-24T00:53:56.762Z,87.70
2018-08-24T00:56:25.222Z,87.80
2018-08-24T00:58:53.692Z,87.60
2018-08-24T01:01:22.296Z,87.10
2018-08-24T01:03:50.718Z,87.30
2018-08-24T01:06:23.165Z,87.40
2018-08-24T01:08:51.819Z,87.30
2018-08-24T01:11:21.485Z,86.70
2018-08-24T01:13:51.668Z,87.10
2018-08-24T01:16:25.741Z,87.20
2018-08-24T01:18:54.226Z,86.80
2018-08-24T01:21:22.685Z,86.90
2018-08-24T01:23:51.471Z,87.40
2018-08-24T01:26:21.945Z,87.70
2018-08-24T01:28:51.387Z,88.00
2018-08-24T01:31:20.192Z,88.10
2018-08-24T01:33:48.808Z,88.20
2018-08-24T01:36:17.272Z,88.10
2018-08-24T01:38:45.781Z,87.90
2018-08-24T01:41:14.280Z,87.80
2018-08-24T01:43:42.735Z,88.00
2018-08-24T01:46:12.732Z,88.10
2018-08-24T01:48:42.070Z,88.00
2018-08-24T01:51:10.468Z,88.10
2018-08-24T01:53:38.948Z,88.30
2018-08-24T01:56:07.340Z,88.30
2018-08-24T01:58:36.492Z,88.30
2018-08-24T02:01:05.135Z,88.30
2018-08-24T02:03:33.683Z,88.10
2018-08-24T02:06:05.196Z,88.20
2018-08-24T02:08:34.082Z,88.10
2018-08-24T02:11:02.594Z,88.20
2018-08-24T02:13:36.255Z,88.40
2018-08-24T02:16:04.713Z,88.50
2018-08-24T02:18:38.777Z,88.50
2018-08-24T02:21:12.652Z,88.50
2018-08-24T02:23:41.125Z,88.70
2018-08-24T02:26:09.576Z,88.40
2018-08-24T02:28:38.597Z,88.40
2018-08-24T02:31:07.120Z,88.40
2018-08-24T02:33:38.404Z,88.50
2018-08-24T02:36:07.845Z,88.60
2018-08-24T02:38:36.278Z,88.70
2018-08-24T02:41:05.778Z,88.60
2018-08-24T02:43:34.376Z,88.60
2018-08-24T02:46:02.840Z,88.60
2018-08-24T02:48:31.292Z,88.60
2018-08-24T02:50:59.793Z,88.10
2018-08-24T02:53:28.272Z,88.30
2018-08-24T02:55:56.747Z,88.30
2018-08-24T02:58:25.248Z,88.30
2018-08-24T03:00:53.757Z,88.40
2018-08-24T03:03:23.169Z,88.40
2018-08-24T03:05:51.645Z,88.50
2018-08-24T03:08:20.072Z,88.30
2018-08-24T03:10:48.496Z,88.10
2018-08-24T03:13:16.976Z,88.50
2018-08-24T03:15:45.461Z,88.70
2018-08-24T03:18:13.884Z,88.80
2018-08-24T03:20:42.401Z,88.90
2018-08-24T03:23:10.815Z,88.90
2018-08-24T03:25:39.270Z,88.90
2018-08-24T03:28:08.029Z,88.80
2018-08-24T03:30:36.435Z,88.80
2018-08-24T03:33:05.423Z,88.90
2018-08-24T03:35:33.864Z,88.90
2018-08-24T03:38:02.370Z,88.90
2018-08-24T03:40:30.852Z,88.90
2018-08-24T03:42:59.309Z,89.00
2018-08-24T03:45:27.884Z,89.00
2018-08-24T03:47:56.360Z,89.10
2018-08-24T03:50:24.877Z,89.10
2018-08-24T03:52:53.427Z,89.20
2018-08-24T03:55:21.851Z,89.20
2018-08-24T03:57:50.316Z,89.40
2018-08-24T04:00:18.732Z,89.40
2018-08-24T04:02:47.603Z,89.50
2018-08-24T04:05:16.660Z,89.60
2018-08-24T04:07:45.133Z,89.50
2018-08-24T04:10:14.246Z,89.50
2018-08-24T04:12:42.765Z,89.50
2018-08-24T04:15:11.183Z,89.50
2018-08-24T04:17:42.872Z,89.50
2018-08-24T04:20:11.468Z,89.40
2018-08-24T04:22:39.957Z,89.60
2018-08-24T04:25:08.865Z,89.60
2018-08-24T04:27:37.814Z,89.60
2018-08-24T04:30:06.466Z,89.60
2018-08-24T04:32:35.076Z,89.50
2018-08-24T04:35:03.862Z,89.50
2018-08-24T04:37:32.947Z,89.60
2018-08-24T04:40:01.600Z,89.60
2018-08-24T04:42:30.112Z,89.70
2018-08-24T04:44:58.634Z,89.80
2018-08-24T04:47:27.189Z,89.80
2018-08-24T04:49:56.012Z,90.00
2018-08-24T04:52:24.701Z,89.90
2018-08-24T04:54:53.492Z,90.00
2018-08-24T04:57:22.608Z,90.00
2018-08-24T04:59:51.114Z,90.00
2018-08-24T05:02:19.600Z,90.10
2018-08-24T05:04:48.269Z,90.10
2018-08-24T05:07:16.696Z,90.00
2018-08-24T05:09:45.121Z,90.10
2018-08-24T05:12:13.620Z,90.10
2018-08-24T05:14:42.049Z,90.10
2018-08-24T05:17:10.500Z,90.10
2018-08-24T05:19:38.975Z,90.20
2018-08-24T05:22:07.465Z,90.20
2018-08-24T05:24:36.046Z,90.20
2018-08-24T05:27:04.512Z,90.20
2018-08-24T05:29:32.953Z,90.20
2018-08-24T05:32:01.467Z,90.20
2018-08-24T05:34:30.052Z,90.20
2018-08-24T05:36:58.593Z,90.20
2018-08-24T05:39:27.076Z,90.20
2018-08-24T05:41:56.222Z,90.20
2018-08-24T05:44:24.686Z,90.10
2018-08-24T05:46:53.155Z,90.10
2018-08-24T05:49:21.599Z,90.10
2018-08-24T05:51:50.020Z,90.20
2018-08-24T05:54:18.635Z,90.20
2018-08-24T05:56:47.073Z,90.20
2018-08-24T05:59:15.618Z,90.20
2018-08-24T06:01:44.063Z,90.20
2018-08-24T06:04:12.500Z,90.30
2018-08-24T06:06:41.926Z,90.20
2018-08-24T06:09:16.484Z,90.20
2018-08-24T06:11:45.565Z,90.00
2018-08-24T06:14:14.427Z,89.20
2018-08-24T06:16:48.258Z,89.10
2018-08-24T06:19:16.709Z,88.50
2018-08-24T06:21:45.185Z,87.70
2018-08-24T06:24:13.609Z,88.20
2018-08-24T06:26:42.237Z,88.80
2018-08-24T06:29:10.723Z,89.00
2018-08-24T06:31:39.194Z,89.00
2018-08-24T06:34:07.611Z,88.10
2018-08-24T06:36:36.077Z,87.70
2018-08-24T06:39:07.504Z,87.80
2018-08-24T06:41:35.993Z,87.10
2018-08-24T06:44:04.486Z,84.00
2018-08-24T06:46:32.911Z,82.00
2018-08-24T06:49:01.602Z,80.60
2018-08-24T06:51:30.072Z,78.10
2018-08-24T06:53:58.577Z,79.00
2018-08-24T06:56:27.201Z,79.70
2018-08-24T06:58:55.676Z,81.90
2018-08-24T07:01:24.185Z,84.90
2018-08-24T07:03:52.843Z,75.90
2018-08-24T07:06:21.374Z,73.80
2018-08-24T07:08:49.881Z,77.20
2018-08-24T07:11:19.021Z,75.40
2018-08-24T07:13:49.883Z,72.60
2018-08-24T07:16:18.448Z,73.50
2018-08-24T07:18:46.912Z,70.90
2018-08-24T07:21:16.347Z,75.20
2018-08-24T07:23:44.851Z,67.40
2018-08-24T07:26:13.352Z,64.90
2018-08-24T07:28:42.568Z,66.50
2018-08-24T07:31:11.004Z,65.90
2018-08-24T07:33:39.444Z,69.90
2018-08-24T07:36:07.885Z,62.30
2018-08-24T07:38:36.365Z,63.50
2018-08-24T07:41:05.512Z,62.20
2018-08-24T07:43:33.993Z,63.60
2018-08-24T07:46:02.397Z,61.40
2018-08-24T07:48:31.005Z,61.80
2018-08-24T07:50:59.549Z,62.40
2018-08-24T07:53:27.878Z,60.40
2018-08-24T07:55:56.430Z,60.30
2018-08-24T07:58:25.028Z,62.10
2018-08-24T08:00:53.512Z,60.50
2018-08-24T08:03:22.039Z,60.30
2018-08-24T08:05:50.467Z,62.60
2018-08-24T08:08:18.926Z,61.00
2018-08-24T08:10:47.521Z,60.50
2018-08-24T08:13:16.032Z,60.10
2018-08-24T08:15:45.161Z,57.50
2018-08-24T08:18:13.617Z,57.70
2018-08-24T08:20:42.045Z,60.00
2018-08-24T08:23:10.453Z,55.60
2018-08-24T08:25:38.913Z,60.10
2018-08-24T08:28:07.354Z,57.50
2018-08-24T08:30:35.841Z,60.30
2018-08-24T08:33:04.944Z,60.30
2018-08-24T08:35:33.414Z,58.10
2018-08-24T08:38:01.956Z,60.00
2018-08-24T08:40:30.502Z,58.10
2018-08-24T08:42:59.052Z,51.80
2018-08-24T08:45:27.624Z,54.30
2018-08-24T08:47:55.989Z,58.90
2018-08-24T08:50:24.445Z,54.40
2018-08-24T08:52:52.926Z,50.60
2018-08-24T08:55:21.352Z,51.50
2018-08-24T08:57:49.876Z,50.90
2018-08-24T09:00:18.335Z,51.00
2018-08-24T09:02:46.937Z,50.90
2018-08-24T09:05:15.473Z,51.50
2018-08-24T09:07:43.933Z,54.70
2018-08-24T09:10:12.456Z,54.50
2018-08-24T09:12:40.948Z,52.80
2018-08-24T09:15:09.492Z,50.20
2018-08-24T09:17:43.269Z,55.40
2018-08-24T09:20:17.107Z,51.40
2018-08-24T09:22:50.935Z,50.30
2018-08-24T09:25:24.989Z,50.50
2018-08-24T09:27:58.820Z,50.10
2018-08-24T09:30:30.708Z,55.50
2018-08-24T09:32:59.310Z,52.10
2018-08-24T09:35:27.744Z,51.00
2018-08-24T09:37:56.998Z,49.70
2018-08-24T09:40:30.825Z,49.60
2018-08-24T09:43:03.583Z,47.90
2018-08-24T09:45:32.082Z,50.00
2018-08-24T09:48:06.167Z,49.80
2018-08-24T09:50:40.581Z,49.20
2018-08-24T09:53:14.388Z,50.20
2018-08-24T09:55:42.808Z,49.90
2018-08-24T09:58:11.293Z,49.30
2018-08-24T10:00:45.437Z,49.40
2018-08-24T10:03:19.330Z,49.30
2018-08-24T10:05:53.282Z,48.60
2018-08-24T10:08:27.156Z,47.40
2018-08-24T10:10:55.635Z,48.00
2018-08-24T10:13:24.267Z,49.20
2018-08-24T10:15:52.708Z,48.50
2018-08-24T10:18:21.181Z,50.70
2018-08-24T10:20:49.613Z,48.00
2018-08-24T10:23:18.060Z,47.10
2018-08-24T10:25:46.571Z,47.10
2018-08-24T10:28:15.047Z,46.60
2018-08-24T10:30:43.469Z,47.00
2018-08-24T10:33:11.944Z,46.60
2018-08-24T10:35:40.460Z,50.80
2018-08-24T10:38:08.943Z,46.20
2018-08-24T10:40:37.362Z,44.90
2018-08-24T10:43:07.133Z,45.80
2018-08-24T10:45:36.250Z,48.20
2018-08-24T10:48:04.770Z,48.80
2018-08-24T10:50:33.367Z,48.60
2018-08-24T10:53:01.802Z,46.40
2018-08-24T10:55:30.490Z,45.80
2018-08-24T10:57:59.528Z,46.90
2018-08-24T11:00:31.969Z,48.00
2018-08-24T11:03:05.912Z,51.20
2018-08-24T11:05:43.931Z,50.80
2018-08-24T11:08:25.937Z,52.00
2018-08-24T11:11:00.148Z,55.90
2018-08-24T11:13:31.310Z,60.20
2018-08-24T11:16:01.696Z,61.30
2018-08-24T11:18:42.754Z,60.90
2018-08-24T11:23:52.204Z,61.50
2018-08-24T11:26:24.428Z,61.20
2018-08-24T11:28:55.855Z,58.60
2018-08-24T11:31:25.341Z,57.40
2018-08-24T11:33:57.843Z,58.40
2018-08-24T11:39:38.727Z,57.00
2018-08-24T11:42:15.815Z,55.90
2018-08-24T11:44:53.034Z,55.90
2018-08-24T11:47:25.637Z,56.90
2018-08-24T11:50:00.220Z,56.30
2018-08-24T11:55:08.901Z,52.10
2018-08-24T11:57:44.555Z,51.80
2018-08-24T12:00:18.286Z,51.10
2018-08-24T12:02:53.688Z,54.90
2018-08-24T12:05:38.489Z,58.40
2018-08-24T12:08:10.850Z,59.40
2018-08-24T12:10:48.531Z,60.90
2018-08-24T12:16:00.501Z,58.30
2018-08-24T12:18:36.961Z,59.60
2018-08-24T12:21:08.741Z,60.30
2018-08-24T12:23:41.994Z,55.60
2018-08-24T12:26:15.133Z,54.30
2018-08-24T12:28:46.621Z,54.70
2018-08-24T12:31:20.752Z,53.40
2018-08-24T12:33:55.229Z,52.50
2018-08-24T12:36:25.300Z,51.60
2018-08-24T12:38:58.488Z,53.90
2018-08-24T12:41:40.157Z,53.20
2018-08-24T12:44:17.448Z,57.60
2018-08-24T12:46:52.237Z,60.80
2018-08-24T12:49:27.504Z,61.40
2018-08-24T12:51:59.114Z,62.60
2018-08-24T12:54:40.600Z,63.30
2018-08-24T12:57:11.953Z,62.90
2018-08-24T12:59:44.800Z,60.80
2018-08-24T13:02:15.730Z,62.80
2018-08-24T13:04:48.553Z,62.50
2018-08-24T13:07:26.328Z,60.50
2018-08-24T13:10:03.885Z,61.40
2018-08-24T13:12:39.599Z,60.60
2018-08-24T13:15:16.128Z,61.50
2018-08-24T13:17:45.413Z,62.00
2018-08-24T13:20:13.884Z,62.10
2018-08-24T13:22:42.337Z,62.00
2018-08-24T13:25:10.795Z,60.20
2018-08-24T13:27:39.293Z,59.80
2018-08-24T13:30:07.813Z,57.00
2018-08-24T13:32:36.329Z,58.50
2018-08-24T13:35:04.831Z,54.10
2018-08-24T13:37:33.296Z,58.80
2018-08-24T13:40:01.763Z,54.00
2018-08-24T13:42:30.347Z,58.60
2018-08-24T13:44:58.789Z,54.60
2018-08-24T13:47:27.442Z,53.40
2018-08-24T13:49:55.806Z,50.90
2018-08-24T13:52:24.300Z,52.50
2018-08-24T13:54:52.780Z,49.30
2018-08-24T13:57:21.203Z,51.80
2018-08-24T13:59:49.710Z,54.30
2018-08-24T14:02:18.125Z,52.80
2018-08-24T14:04:46.653Z,55.00
2018-08-24T14:07:15.856Z,56.10
2018-08-24T14:09:44.381Z,51.30
2018-08-24T14:12:12.932Z,52.60
2018-08-24T14:14:41.404Z,52.50
2018-08-24T14:17:09.969Z,51.60
2018-08-24T14:19:38.652Z,50.30
2018-08-24T14:22:07.110Z,52.10
2018-08-24T14:24:35.613Z,50.80
2018-08-24T14:27:04.081Z,53.10
2018-08-24T14:29:32.581Z,50.90
2018-08-24T14:32:01.207Z,51.90
2018-08-24T14:34:29.783Z,54.40
2018-08-24T14:36:58.380Z,53.60
2018-08-24T14:39:26.872Z,54.30
2018-08-24T14:41:55.313Z,54.40
2018-08-24T14:44:24.599Z,54.10
2018-08-24T14:46:53.115Z,55.20
2018-08-24T14:49:21.608Z,53.10
2018-08-24T14:51:50.077Z,54.40
2018-08-24T14:54:18.506Z,52.90
2018-08-24T14:56:47.019Z,53.20
2018-08-24T14:59:15.536Z,56.10
2018-08-24T15:01:44.108Z,52.70
2018-08-24T15:04:12.661Z,50.80
2018-08-24T15:06:41.141Z,50.60
2018-08-24T15:09:11.093Z,50.00
2018-08-24T15:11:39.800Z,49.80
2018-08-24T15:14:08.768Z,48.00
2018-08-24T15:16:37.253Z,48.40
2018-08-24T15:19:05.916Z,46.20
2018-08-24T15:21:34.397Z,45.20
2018-08-24T15:24:02.845Z,44.30
2018-08-24T15:26:31.304Z,45.60
2018-08-24T15:28:59.753Z,46.00
2018-08-24T15:31:28.327Z,45.40
2018-08-24T15:33:56.760Z,44.20
2018-08-24T15:36:25.261Z,45.50
2018-08-24T15:38:53.715Z,45.10
2018-08-24T15:41:22.189Z,43.60
2018-08-24T15:43:50.641Z,44.00
2018-08-24T15:46:19.137Z,43.30
2018-08-24T15:48:47.765Z,44.10
2018-08-24T15:51:16.385Z,42.90
2018-08-24T15:53:44.836Z,45.50
2018-08-24T15:56:13.445Z,45.90
2018-08-24T15:58:41.954Z,44.20
2018-08-24T16:01:10.385Z,44.90
2018-08-24T16:03:39.087Z,44.90
2018-08-24T16:06:07.662Z,45.20
2018-08-24T16:08:36.179Z,44.10
2018-08-24T16:11:05.656Z,44.50
2018-08-24T16:13:34.159Z,44.70
2018-08-24T16:16:02.701Z,46.30
2018-08-24T16:18:31.254Z,44.50
2018-08-24T16:21:00.440Z,43.50
2018-08-24T16:23:28.946Z,45.30
2018-08-24T16:25:57.439Z,46.10
2018-08-24T16:28:26.036Z,45.30
2018-08-24T16:30:54.481Z,45.80
2018-08-24T16:33:23.083Z,46.10
2018-08-24T16:35:51.661Z,44.80
2018-08-24T16:38:20.116Z,43.70
2018-08-24T16:40:48.571Z,46.00
2018-08-24T16:43:17.046Z,45.10
2018-08-24T16:45:45.526Z,45.00
2018-08-24T16:48:13.945Z,46.30
2018-08-24T16:50:42.471Z,45.60
2018-08-24T16:53:10.910Z,45.40
2018-08-24T16:55:39.589Z,44.00
2018-08-24T16:58:08.185Z,45.70
2018-08-24T17:00:36.641Z,47.30
2018-08-24T17:03:05.493Z,48.70
2018-08-24T17:05:34.007Z,46.90
2018-08-24T17:08:02.444Z,48.10
2018-08-24T17:10:31.024Z,47.30
2018-08-24T17:12:59.690Z,51.00
2018-08-24T17:15:28.134Z,50.10
2018-08-24T17:17:56.635Z,49.60
2018-08-24T17:20:25.192Z,49.70
2018-08-24T17:22:53.844Z,51.10
2018-08-24T17:25:22.341Z,51.70
2018-08-24T17:27:50.842Z,49.70
2018-08-24T17:30:19.333Z,52.20
2018-08-24T17:32:47.981Z,52.80
2018-08-24T17:35:16.526Z,50.10
2018-08-24T17:37:45.032Z,48.30
2018-08-24T17:40:13.541Z,47.60
2018-08-24T17:42:42.037Z,48.10
2018-08-24T17:45:10.505Z,49.50
2018-08-24T17:47:39.009Z,48.20
2018-08-24T17:50:08.420Z,47.30
2018-08-24T17:52:36.875Z,48.60
2018-08-24T17:55:05.404Z,50.50
2018-08-24T17:57:33.849Z,47.50
2018-08-24T18:00:02.815Z,49.20
2018-08-24T18:02:31.244Z,53.20
2018-08-24T18:04:59.756Z,49.10
2018-08-24T18:07:28.192Z,51.90
2018-08-24T18:09:56.650Z,52.90
2018-08-24T18:12:25.191Z,50.40
2018-08-24T18:14:53.779Z,53.50
2018-08-24T18:17:22.288Z,53.90
2018-08-24T18:19:50.834Z,53.20
2018-08-24T18:22:19.382Z,47.20
2018-08-24T18:24:47.871Z,47.40
2018-08-24T18:27:16.781Z,49.50
2018-08-24T18:29:45.462Z,49.40
2018-08-24T18:32:13.941Z,53.00
2018-08-24T18:34:42.435Z,49.60
2018-08-24T18:37:10.926Z,55.20
2018-08-24T18:39:39.373Z,54.80
2018-08-24T18:42:07.886Z,51.40
2018-08-24T18:44:36.464Z,52.70
2018-08-24T18:47:05.110Z,52.70
2018-08-24T18:49:33.544Z,49.60
2018-08-24T18:52:02.082Z,50.90
2018-08-24T18:54:30.543Z,51.30
2018-08-24T18:56:58.967Z,53.50
2018-08-24T18:59:27.453Z,52.40
2018-08-24T19:01:55.916Z,54.80
2018-08-24T19:04:24.407Z,55.60
2018-08-24T19:06:52.961Z,56.30
2018-08-24T19:09:22.149Z,57.70
2018-08-24T19:11:56.163Z,60.10
2018-08-24T19:14:24.612Z,60.40
2018-08-24T19:16:53.097Z,60.20
2018-08-24T19:19:26.834Z,60.60
2018-08-24T19:21:59.317Z,60.50
2018-08-24T19:24:27.860Z,60.10
2018-08-24T19:26:56.425Z,60.70
2018-08-24T19:29:30.297Z,60.70
2018-08-24T19:31:58.816Z,59.30
2018-08-24T19:34:27.864Z,60.40
2018-08-24T19:36:56.370Z,60.60
2018-08-24T19:39:24.853Z,60.80
2018-08-24T19:42:25.786Z,60.70
2018-08-24T19:44:54.785Z,60.70
2018-08-24T19:47:28.652Z,60.50
2018-08-24T19:49:57.099Z,60.30
2018-08-24T19:52:25.657Z,61.00
2018-08-24T19:54:54.275Z,61.70
2018-08-24T19:57:28.006Z,61.70
2018-08-24T19:59:56.545Z,62.00
2018-08-24T20:02:24.985Z,62.90
2018-08-24T20:04:53.576Z,62.10
2018-08-24T20:07:27.388Z,62.80
2018-08-24T20:10:01.085Z,64.30
2018-08-24T20:12:29.573Z,64.10
2018-08-24T20:15:03.433Z,64.90
2018-08-24T20:17:33.057Z,65.00
2018-08-24T20:20:02.133Z,65.50
2018-08-24T20:22:30.600Z,65.30
2018-08-24T20:24:59.053Z,64.60
2018-08-24T20:27:27.550Z,65.30
2018-08-24T20:29:55.983Z,65.70
2018-08-24T20:32:24.481Z,67.00
2018-08-24T20:34:53.060Z,67.90
2018-08-24T20:37:21.554Z,68.00
2018-08-24T20:39:50.164Z,68.20
2018-08-24T20:42:19.337Z,68.80
2018-08-24T20:44:47.851Z,70.40
2018-08-24T20:47:16.593Z,70.30
2018-08-24T20:49:44.952Z,69.00
2018-08-24T20:52:13.432Z,67.80
2018-08-24T20:54:42.036Z,67.90
2018-08-24T20:57:10.513Z,68.50
2018-08-24T20:59:39.265Z,68.80
2018-08-24T21:02:08.006Z,68.80
2018-08-24T21:04:36.525Z,68.30
2018-08-24T21:07:05.370Z,69.20
2018-08-24T21:09:33.899Z,70.30
2018-08-24T21:12:02.395Z,70.90
2018-08-24T21:14:30.879Z,72.10
2018-08-24T21:16:59.575Z,71.00
2018-08-24T21:19:28.022Z,71.70
2018-08-24T21:21:56.485Z,71.30
2018-08-24T21:24:25.596Z,71.20
2018-08-24T21:26:54.071Z,71.60
2018-08-24T21:29:22.624Z,71.70
2018-08-24T21:31:51.091Z,72.10
2018-08-24T21:34:19.573Z,71.60
2018-08-24T21:36:48.050Z,72.40
2018-08-24T21:39:16.580Z,71.40
2018-08-24T21:41:45.085Z,71.40
2018-08-24T21:44:13.537Z,71.80
2018-08-24T21:46:42.635Z,72.20
2018-08-24T21:49:11.120Z,72.40
2018-08-24T21:51:40.350Z,71.50
2018-08-24T21:54:09.301Z,71.50
2018-08-24T21:56:37.752Z,71.30
2018-08-24T21:59:06.366Z,71.90
2018-08-24T22:01:34.925Z,72.20
2018-08-24T22:04:03.443Z,72.40
2018-08-24T22:06:32.004Z,71.30
2018-08-24T22:09:00.521Z,71.90
2018-08-24T22:11:29.045Z,72.90
2018-08-24T22:13:57.544Z,71.80
2018-08-24T22:16:26.077Z,72.20
2018-08-24T22:18:54.588Z,73.60
2018-08-24T22:21:23.073Z,72.10
2018-08-24T22:23:51.498Z,72.60
2018-08-24T22:26:19.989Z,71.30
2018-08-24T22:28:49.072Z,73.80
2018-08-24T22:31:17.555Z,74.00
2018-08-24T22:33:46.062Z,74.00
2018-08-24T22:36:14.554Z,73.60
2018-08-24T22:38:43.440Z,74.00
2018-08-24T22:41:12.507Z,74.00
2018-08-24T22:43:40.982Z,73.80
2018-08-24T22:46:09.438Z,74.60
2018-08-24T22:48:37.867Z,74.00
2018-08-24T22:51:06.429Z,73.20
2018-08-24T22:53:34.872Z,74.10
2018-08-24T22:56:03.444Z,74.80
2018-08-24T22:58:32.470Z,75.70
2018-08-24T23:01:00.969Z,75.40
2018-08-24T23:03:29.505Z,75.70
2018-08-24T23:05:58.962Z,74.90
2018-08-24T23:08:27.483Z,75.40
2018-08-24T23:10:55.929Z,74.60
2018-08-24T23:13:24.441Z,73.10
2018-08-24T23:15:52.909Z,73.70
2018-08-24T23:18:21.361Z,74.80
2018-08-24T23:20:49.848Z,74.10
2018-08-24T23:23:18.338Z,77.00
2018-08-24T23:25:46.781Z,78.20
2018-08-24T23:28:15.230Z,78.50
2018-08-24T23:30:43.707Z,78.40
2018-08-24T23:33:12.177Z,78.30
2018-08-24T23:35:42.025Z,77.60
2018-08-24T23:38:10.549Z,78.80
2018-08-24T23:40:38.989Z,79.40
2018-08-24T23:43:07.477Z,80.50
2018-08-24T23:45:36.038Z,80.20
2018-08-24T23:48:04.668Z,78.60
2018-08-24T23:50:33.140Z,77.80
2018-08-24T23:53:01.600Z,76.80
2018-08-24T23:55:30.065Z,77.00
2018-08-24T23:57:59.088Z,78.90
